createdAt,value
2018-08-06T00:01:22.126Z,20.30
2018-08-06T00:03:51.294Z,20.30
2018-08-06T00:08:49.950Z,20.30
2018-08-06T00:11:19.095Z,20.30
2018-08-06T00:13:48.166Z,20.30
2018-08-06T00:18:46.019Z,20.30
2018-08-06T00:21:15.128Z,20.20
2018-08-06T00:23:44.819Z,20.20
2018-08-06T00:26:13.909Z,20.20
2018-08-06T00:28:42.986Z,20.10
2018-08-06T00:31:12.023Z,20.10
2018-08-06T00:33:41.303Z,20.00
2018-08-06T00:36:10.357Z,20.00
2018-08-06T00:38:39.419Z,20.00
2018-08-06T00:43:37.298Z,19.90
2018-08-06T00:48:35.973Z,19.90
2018-08-06T00:51:05.198Z,19.90
2018-08-06T00:56:02.936Z,19.70
2018-08-06T00:58:32.030Z,19.60
2018-08-06T01:01:01.127Z,19.60
2018-08-06T01:03:30.196Z,19.60
2018-08-06T01:05:59.314Z,19.50
2018-08-06T01:08:28.317Z,19.50
2018-08-06T01:10:57.384Z,19.50
2018-08-06T01:13:26.469Z,19.40
2018-08-06T01:15:55.629Z,19.40
2018-08-06T01:23:22.111Z,19.30
2018-08-06T01:30:48.574Z,19.10
2018-08-06T01:38:15.156Z,19.00
2018-08-06T01:40:44.236Z,18.90
2018-08-06T01:45:42.497Z,18.90
2018-08-06T01:48:11.562Z,18.90
2018-08-06T01:50:40.623Z,18.90
2018-08-06T01:53:09.746Z,18.80
2018-08-06T01:55:38.843Z,18.80
2018-08-06T01:58:07.894Z,18.80
2018-08-06T02:03:06.122Z,18.80
2018-08-06T02:05:35.176Z,18.70
2018-08-06T02:10:32.913Z,18.70
2018-08-06T02:13:02.005Z,18.70
2018-08-06T02:15:31.104Z,18.70
2018-08-06T02:18:00.164Z,18.60
2018-08-06T02:20:29.207Z,18.60
2018-08-06T02:25:27.029Z,18.60
2018-08-06T02:27:56.213Z,18.50
2018-08-06T02:32:53.978Z,18.50
2018-08-06T02:35:23.091Z,18.50
2018-08-06T02:40:22.461Z,18.50
2018-08-06T02:42:51.612Z,18.50
2018-08-06T02:50:18.164Z,18.40
2018-08-06T02:55:16.651Z,18.30
2018-08-06T02:57:45.809Z,18.30
2018-08-06T03:00:16.636Z,18.30
2018-08-06T03:02:46.593Z,18.30
2018-08-06T03:05:16.929Z,18.30
2018-08-06T03:10:15.104Z,18.20
2018-08-06T03:12:45.238Z,18.20
2018-08-06T03:17:43.152Z,18.20
2018-08-06T03:20:13.197Z,18.20
2018-08-06T03:22:42.256Z,18.20
2018-08-06T03:25:13.404Z,18.20
2018-08-06T03:27:42.984Z,18.20
2018-08-06T03:32:42.801Z,18.20
2018-08-06T03:35:12.544Z,18.20
2018-08-06T03:37:41.815Z,18.10
2018-08-06T03:40:11.275Z,18.10
2018-08-06T03:42:40.471Z,18.10
2018-08-06T03:45:11.297Z,18.10
2018-08-06T03:47:41.427Z,18.20
2018-08-06T03:50:11.909Z,18.20
2018-08-06T03:55:10.858Z,18.20
2018-08-06T03:57:40.406Z,18.20
2018-08-06T04:02:39.836Z,18.20
2018-08-06T04:07:39.713Z,18.20
2018-08-06T04:10:10.345Z,18.20
2018-08-06T04:12:39.481Z,18.20
2018-08-06T04:15:09.274Z,18.30
2018-08-06T04:17:38.447Z,18.20
2018-08-06T04:20:08.699Z,18.20
2018-08-06T04:22:38.031Z,18.30
2018-08-06T04:25:07.561Z,18.30
2018-08-06T04:27:36.974Z,18.30
2018-08-06T04:30:08.351Z,18.30
2018-08-06T04:32:37.398Z,18.30
2018-08-06T04:35:06.485Z,18.40
2018-08-06T04:37:35.650Z,18.40
2018-08-06T04:40:06.253Z,18.40
2018-08-06T04:42:35.327Z,18.40
2018-08-06T04:45:04.918Z,18.40
2018-08-06T04:47:33.995Z,18.40
2018-08-06T04:50:03.118Z,18.40
2018-08-06T04:52:32.158Z,18.50
2018-08-06T04:55:01.231Z,18.60
2018-08-06T04:57:30.395Z,18.60
2018-08-06T04:59:59.444Z,18.70
2018-08-06T05:04:57.143Z,18.70
2018-08-06T05:09:54.955Z,18.60
2018-08-06T05:12:24.065Z,18.60
2018-08-06T05:14:53.129Z,18.70
2018-08-06T05:17:22.249Z,18.80
2018-08-06T05:19:51.393Z,18.80
2018-08-06T05:27:18.058Z,18.90
2018-08-06T05:29:47.295Z,18.90
2018-08-06T05:32:16.430Z,18.90
2018-08-06T05:34:45.583Z,19.00
2018-08-06T05:37:14.650Z,19.10
2018-08-06T05:42:12.411Z,19.30
2018-08-06T05:44:41.529Z,19.40
2018-08-06T05:49:39.670Z,19.30
2018-08-06T05:52:08.956Z,19.40
2018-08-06T05:54:38.067Z,19.50
2018-08-06T05:57:07.175Z,19.60
2018-08-06T05:59:36.315Z,19.70
2018-08-06T06:02:06.053Z,19.80
2018-08-06T06:04:36.200Z,19.90
2018-08-06T06:07:05.677Z,19.90
2018-08-06T06:09:34.777Z,19.90
2018-08-06T06:12:03.942Z,20.00
2018-08-06T06:14:32.947Z,20.00
2018-08-06T06:17:02.031Z,20.00
2018-08-06T06:19:31.131Z,20.10
2018-08-06T06:22:00.304Z,20.20
2018-08-06T06:31:55.501Z,20.60
2018-08-06T06:34:24.669Z,20.70
2018-08-06T06:36:53.711Z,20.80
2018-08-06T06:39:23.670Z,20.90
2018-08-06T06:41:52.742Z,20.90
2018-08-06T06:44:21.894Z,20.90
2018-08-06T06:46:52.015Z,20.90
2018-08-06T06:49:21.120Z,20.90
2018-08-06T06:51:50.762Z,20.70
2018-08-06T06:54:19.989Z,20.70
2018-08-06T06:56:49.105Z,20.70
2018-08-06T06:59:18.154Z,20.80
2018-08-06T07:04:16.629Z,21.20
2018-08-06T07:06:45.730Z,21.50
2018-08-06T07:09:14.878Z,21.50
2018-08-06T07:11:43.905Z,21.50
2018-08-06T07:14:13.018Z,21.40
2018-08-06T07:16:42.081Z,21.40
2018-08-06T07:19:11.167Z,21.40
2018-08-06T07:21:40.230Z,21.40
2018-08-06T07:24:09.336Z,21.50
2018-08-06T07:26:38.570Z,21.50
2018-08-06T07:29:07.612Z,21.50
2018-08-06T07:31:36.964Z,21.50
2018-08-06T07:34:06.037Z,21.70
2018-08-06T07:36:35.141Z,21.80
2018-08-06T07:39:06.170Z,22.10
2018-08-06T07:41:35.422Z,22.20
2018-08-06T07:44:04.518Z,22.30
2018-08-06T07:46:33.623Z,22.30
2018-08-06T07:51:31.488Z,22.40
2018-08-06T07:54:00.590Z,22.50
2018-08-06T07:58:58.465Z,22.50
2018-08-06T08:01:27.550Z,22.40
2018-08-06T08:03:56.636Z,22.50
2018-08-06T08:06:25.722Z,22.50
2018-08-06T08:08:54.798Z,22.50
2018-08-06T08:11:23.862Z,22.60
2018-08-06T08:13:53.046Z,22.80
2018-08-06T08:21:19.535Z,23.00
2018-08-06T08:23:48.644Z,23.10
2018-08-06T08:26:17.755Z,23.10
2018-08-06T08:28:46.871Z,23.10
2018-08-06T08:31:15.942Z,23.40
2018-08-06T08:33:44.972Z,23.40
2018-08-06T08:36:14.080Z,23.40
2018-08-06T08:38:43.379Z,23.30
2018-08-06T08:43:41.169Z,23.70
2018-08-06T08:46:10.364Z,23.80
2018-08-06T08:48:39.379Z,23.70
2018-08-06T08:51:08.433Z,23.70
2018-08-06T08:56:06.411Z,24.10
2018-08-06T08:58:35.886Z,24.30
2018-08-06T09:01:05.434Z,24.60
2018-08-06T09:03:35.427Z,24.60
2018-08-06T09:06:04.524Z,24.40
2018-08-06T09:08:33.599Z,24.20
2018-08-06T09:11:02.690Z,23.80
2018-08-06T09:13:31.784Z,23.70
2018-08-06T09:16:01.117Z,23.70
2018-08-06T09:18:30.244Z,23.80
2018-08-06T09:20:59.360Z,23.80
2018-08-06T09:23:28.997Z,23.70
2018-08-06T09:25:58.269Z,23.70
2018-08-06T09:28:27.313Z,24.10
2018-08-06T09:30:58.104Z,24.30
2018-08-06T09:33:27.177Z,24.60
2018-08-06T09:35:56.376Z,24.70
2018-08-06T09:38:25.435Z,24.80
2018-08-06T09:48:21.377Z,24.60
2018-08-06T09:50:50.406Z,24.70
2018-08-06T09:58:17.294Z,24.60
2018-08-06T10:00:51.944Z,24.80
2018-08-06T10:03:21.069Z,24.90
2018-08-06T10:05:50.252Z,25.20
2018-08-06T10:10:48.020Z,25.40
2018-08-06T10:13:17.159Z,25.30
2018-08-06T10:15:47.487Z,25.10
2018-08-06T10:18:16.565Z,24.80
2018-08-06T10:20:45.679Z,24.90
2018-08-06T10:25:43.567Z,24.90
2018-08-06T10:28:12.711Z,25.10
2018-08-06T10:30:41.856Z,25.20
2018-08-06T10:33:11.044Z,25.20
2018-08-06T10:38:08.834Z,25.20
2018-08-06T10:43:06.782Z,25.20
2018-08-06T10:45:35.987Z,25.20
2018-08-06T10:48:05.361Z,25.30
2018-08-06T10:50:34.748Z,25.40
2018-08-06T10:53:03.850Z,25.20
2018-08-06T10:55:33.972Z,25.20
2018-08-06T10:58:03.127Z,25.20
2018-08-06T11:03:00.894Z,25.30
2018-08-06T11:05:30.003Z,25.30
2018-08-06T11:10:27.723Z,25.50
2018-08-06T11:12:56.962Z,25.60
2018-08-06T11:15:26.801Z,25.70
2018-08-06T11:17:55.987Z,25.90
2018-08-06T11:22:53.952Z,25.80
2018-08-06T11:25:23.547Z,25.80
2018-08-06T11:27:52.648Z,25.60
2018-08-06T11:32:52.050Z,25.60
2018-08-06T11:35:21.125Z,25.80
2018-08-06T11:37:50.267Z,25.90
2018-08-06T11:40:19.266Z,26.00
2018-08-06T11:45:18.903Z,26.20
2018-08-06T11:47:47.955Z,26.20
2018-08-06T11:50:18.462Z,26.20
2018-08-06T11:52:47.538Z,26.20
2018-08-06T11:55:23.211Z,26.20
2018-08-06T11:57:52.380Z,26.20
2018-08-06T12:00:24.298Z,26.20
2018-08-06T12:02:53.475Z,26.20
2018-08-06T12:05:22.547Z,26.30
2018-08-06T12:07:51.769Z,26.50
2018-08-06T12:10:20.870Z,26.60
2018-08-06T12:12:50.357Z,26.50
2018-08-06T12:15:19.570Z,26.70
2018-08-06T12:17:48.577Z,26.70
2018-08-06T12:20:18.915Z,26.60
2018-08-06T12:22:49.231Z,26.80
2018-08-06T12:25:18.751Z,27.20
2018-08-06T12:27:48.639Z,27.80
2018-08-06T12:30:20.346Z,28.90
2018-08-06T12:32:50.127Z,30.00
2018-08-06T12:37:48.515Z,30.80
2018-08-06T12:42:47.611Z,31.90
2018-08-06T12:47:46.394Z,33.50
2018-08-06T12:50:16.297Z,34.40
2018-08-06T12:52:45.656Z,34.40
2018-08-06T12:55:16.618Z,35.40
2018-08-06T12:57:46.015Z,35.50
2018-08-06T13:00:20.550Z,36.10
2018-08-06T13:02:50.256Z,36.30
2018-08-06T13:05:20.248Z,36.80
2018-08-06T13:07:49.483Z,37.10
2018-08-06T13:10:18.535Z,37.40
2018-08-06T13:12:47.885Z,37.10
2018-08-06T13:15:17.911Z,37.00
2018-08-06T13:17:47.039Z,37.50
2018-08-06T13:20:16.138Z,37.30
2018-08-06T13:25:13.955Z,39.30
2018-08-06T13:27:43.050Z,38.90
2018-08-06T13:30:14.166Z,38.60
2018-08-06T13:32:43.845Z,39.70
2018-08-06T13:35:14.065Z,40.90
2018-08-06T13:37:43.116Z,41.80
2018-08-06T13:40:12.695Z,42.70
2018-08-06T13:42:42.388Z,41.30
2018-08-06T13:45:13.088Z,40.70
2018-08-06T13:47:42.510Z,39.90
2018-08-06T13:52:40.564Z,40.40
2018-08-06T13:55:11.067Z,41.80
2018-08-06T13:57:40.737Z,42.40
2018-08-06T14:00:15.278Z,41.80
2018-08-06T14:02:44.646Z,42.20
2018-08-06T14:05:15.065Z,43.30
2018-08-06T14:10:14.162Z,44.90
2018-08-06T14:12:43.221Z,45.40
2018-08-06T14:15:13.202Z,45.40
2018-08-06T14:17:42.615Z,46.10
2018-08-06T14:20:16.437Z,46.60
2018-08-06T14:22:45.494Z,46.20
2018-08-06T14:25:14.838Z,46.00
2018-08-06T14:27:44.064Z,45.90
2018-08-06T14:30:16.959Z,46.10
2018-08-06T14:35:15.370Z,44.20
2018-08-06T14:37:44.939Z,44.40
2018-08-06T14:40:16.308Z,45.10
2018-08-06T14:42:45.757Z,45.70
2018-08-06T14:45:14.869Z,45.60
2018-08-06T14:47:44.117Z,45.80
2018-08-06T14:50:14.526Z,45.30
2018-08-06T14:52:43.645Z,45.40
2018-08-06T14:57:42.245Z,47.40
2018-08-06T15:02:50.170Z,48.40
2018-08-06T15:05:19.451Z,48.50
2018-08-06T15:07:49.362Z,47.40
2018-08-06T15:10:18.538Z,46.80
2018-08-06T15:12:47.945Z,47.00
2018-08-06T15:15:18.242Z,48.00
2018-08-06T15:17:48.209Z,48.90
2018-08-06T15:20:18.581Z,49.50
2018-08-06T15:22:48.216Z,49.80
2018-08-06T15:27:49.563Z,48.50
2018-08-06T15:30:18.717Z,48.40
2018-08-06T15:32:47.860Z,48.00
2018-08-06T15:35:17.111Z,48.40
2018-08-06T15:37:46.250Z,48.80
2018-08-06T15:40:18.321Z,47.20
2018-08-06T15:42:47.453Z,46.50
2018-08-06T15:45:16.714Z,46.70
2018-08-06T15:47:46.361Z,47.00
2018-08-06T15:52:47.982Z,47.50
2018-08-06T15:55:17.364Z,48.10
2018-08-06T15:57:46.506Z,49.00
2018-08-06T16:00:18.936Z,48.90
2018-08-06T16:02:48.470Z,49.10
2018-08-06T16:05:19.298Z,49.30
2018-08-06T16:07:48.452Z,48.70
2018-08-06T16:10:21.518Z,48.40
2018-08-06T16:12:53.931Z,49.10
2018-08-06T16:15:27.719Z,47.20
2018-08-06T16:18:01.624Z,47.10
2018-08-06T16:20:33.935Z,47.00
2018-08-06T16:23:07.698Z,47.10
2018-08-06T16:25:40.955Z,45.90
2018-08-06T16:30:46.651Z,40.50
2018-08-06T16:33:19.513Z,38.40
2018-08-06T16:35:51.288Z,37.00
2018-08-06T16:38:20.852Z,35.90
2018-08-06T16:40:51.289Z,35.20
2018-08-06T16:48:22.964Z,33.30
2018-08-06T16:50:53.064Z,32.90
2018-08-06T16:53:24.072Z,32.60
2018-08-06T16:55:55.778Z,32.40
2018-08-06T16:58:28.537Z,32.30
2018-08-06T17:01:01.983Z,32.00
2018-08-06T17:06:06.234Z,31.40
2018-08-06T17:08:39.778Z,31.20
2018-08-06T17:11:09.326Z,31.00
2018-08-06T17:13:38.390Z,30.80
2018-08-06T17:16:07.469Z,30.60
2018-08-06T17:18:36.633Z,30.40
2018-08-06T17:21:06.353Z,30.40
2018-08-06T17:23:35.590Z,30.40
2018-08-06T17:28:33.484Z,30.10
2018-08-06T17:31:02.573Z,29.90
2018-08-06T17:33:31.717Z,29.80
2018-08-06T17:36:00.831Z,29.70
2018-08-06T17:38:29.984Z,29.60
2018-08-06T17:40:59.146Z,29.40
2018-08-06T17:48:29.677Z,29.20
2018-08-06T17:50:59.443Z,29.20
2018-08-06T17:53:28.493Z,29.10
2018-08-06T17:55:57.526Z,29.00
2018-08-06T18:03:24.065Z,28.70
2018-08-06T18:05:53.170Z,28.60
2018-08-06T18:10:50.969Z,28.40
2018-08-06T18:13:20.102Z,28.40
2018-08-06T18:15:49.298Z,28.30
2018-08-06T18:18:18.441Z,28.20
2018-08-06T18:20:47.612Z,28.10
2018-08-06T18:23:16.762Z,28.00
2018-08-06T18:25:45.846Z,27.90
2018-08-06T18:28:14.911Z,27.90
2018-08-06T18:33:13.245Z,27.70
2018-08-06T18:35:42.421Z,27.60
2018-08-06T18:38:12.984Z,27.60
2018-08-06T18:40:42.818Z,27.40
2018-08-06T18:43:11.977Z,27.40
2018-08-06T18:45:41.115Z,27.30
2018-08-06T18:48:10.355Z,27.30
2018-08-06T18:50:39.460Z,27.20
2018-08-06T18:53:08.569Z,27.10
2018-08-06T18:55:37.676Z,27.00
2018-08-06T18:58:06.798Z,26.90
2018-08-06T19:03:04.650Z,26.80
2018-08-06T19:05:33.803Z,26.70
2018-08-06T19:08:02.911Z,26.60
2018-08-06T19:10:32.201Z,26.60
2018-08-06T19:15:35.609Z,26.40
2018-08-06T19:18:09.909Z,26.30
2018-08-06T19:20:39.569Z,26.30
2018-08-06T19:23:09.254Z,26.20
2018-08-06T19:25:38.658Z,26.10
2018-08-06T19:28:07.828Z,26.10
2018-08-06T19:33:11.302Z,26.00
2018-08-06T19:35:40.417Z,26.00
2018-08-06T19:40:39.083Z,26.00
2018-08-06T19:43:13.613Z,25.90
2018-08-06T19:45:42.718Z,25.90
2018-08-06T19:48:11.949Z,25.80
2018-08-06T19:50:43.069Z,25.70
2018-08-06T19:53:12.457Z,25.70
2018-08-06T19:55:47.134Z,25.70
2018-08-06T19:58:16.249Z,25.60
2018-08-06T20:00:45.470Z,25.60
2018-08-06T20:03:14.563Z,25.60
2018-08-06T20:05:43.657Z,25.60
2018-08-06T20:08:12.886Z,25.50
2018-08-06T20:13:10.968Z,25.40
2018-08-06T20:18:09.165Z,25.30
2018-08-06T20:20:38.247Z,25.30
2018-08-06T20:23:07.355Z,25.20
2018-08-06T20:25:36.484Z,25.10
2018-08-06T20:28:05.667Z,25.10
2018-08-06T20:30:34.780Z,25.10
2018-08-06T20:33:04.789Z,25.00
2018-08-06T20:35:33.960Z,25.00
2018-08-06T20:38:03.128Z,24.90
2018-08-06T20:40:32.163Z,24.80
2018-08-06T20:43:01.268Z,24.80
2018-08-06T20:45:30.500Z,24.70
2018-08-06T20:50:29.088Z,24.70
2018-08-06T20:52:58.188Z,24.60
2018-08-06T20:55:27.368Z,24.60
2018-08-06T20:57:56.469Z,24.50
2018-08-06T21:00:26.422Z,24.40
2018-08-06T21:02:55.517Z,24.40
2018-08-06T21:07:53.519Z,24.30
2018-08-06T21:10:22.724Z,24.20
2018-08-06T21:12:52.079Z,24.20
2018-08-06T21:15:21.269Z,24.10
2018-08-06T21:22:50.347Z,24.00
2018-08-06T21:25:19.551Z,24.00
2018-08-06T21:27:49.110Z,23.90
2018-08-06T21:30:20.802Z,23.90
2018-08-06T21:32:52.080Z,23.80
2018-08-06T21:35:22.134Z,23.70
2018-08-06T21:37:52.187Z,23.70
2018-08-06T21:40:22.213Z,23.60
2018-08-06T21:42:51.747Z,23.60
2018-08-06T21:45:21.229Z,23.50
2018-08-06T21:47:51.087Z,23.50
2018-08-06T21:50:21.490Z,23.50
2018-08-06T21:52:51.531Z,23.40
2018-08-06T21:55:20.817Z,23.40
2018-08-06T21:57:53.434Z,23.30
2018-08-06T22:00:35.279Z,23.30
2018-08-06T22:03:06.894Z,23.20
2018-08-06T22:05:36.820Z,23.20
2018-08-06T22:08:06.038Z,23.10
2018-08-06T22:10:35.145Z,23.10
2018-08-06T22:13:04.874Z,23.00
2018-08-06T22:15:34.105Z,23.00
2018-08-06T22:18:05.076Z,23.00
2018-08-06T22:20:34.856Z,22.90
2018-08-06T22:23:04.189Z,22.90
2018-08-06T22:25:33.330Z,22.90
2018-08-06T22:28:02.610Z,22.80
2018-08-06T22:30:31.806Z,22.80
2018-08-06T22:33:00.944Z,22.80
2018-08-06T22:35:30.145Z,22.70
2018-08-06T22:37:59.299Z,22.70
2018-08-06T22:40:28.486Z,22.70
2018-08-06T22:45:26.734Z,22.60
2018-08-06T22:47:56.150Z,22.50
2018-08-06T22:50:25.249Z,22.50
2018-08-06T22:57:52.155Z,22.40
2018-08-06T23:00:21.402Z,22.40
2018-08-06T23:02:50.485Z,22.30
2018-08-06T23:05:19.771Z,22.40
2018-08-06T23:07:48.834Z,22.30
2018-08-06T23:18:54.235Z,22.20
2018-08-06T23:21:23.929Z,22.10
2018-08-06T23:23:52.997Z,22.10
2018-08-06T23:26:22.885Z,22.10
2018-08-06T23:28:52.041Z,22.10
2018-08-06T23:31:21.247Z,22.00
2018-08-06T23:33:50.389Z,22.00
2018-08-06T23:36:19.476Z,22.00
2018-08-06T23:38:48.828Z,22.00
2018-08-06T23:41:18.006Z,21.90
2018-08-06T23:46:16.167Z,21.80
2018-08-06T23:48:45.330Z,21.80
2018-08-06T23:51:14.575Z,21.80
2018-08-06T23:56:13.148Z,21.70
2018-08-06T23:58:42.627Z,21.70
